Free Trial

Atlanta Braves (BATRA) Institutional Ownership

$41.36
-0.65 (-1.55%)
(As of 04:00 PM ET)

Institutional Ownership Changes (13F Filings) for Atlanta Braves (NASDAQ:BATRA)

Current
Institutional Ownership
Percentage
12.31%
Number of
Institutional Buyers
(last 12 months)
25
Total
Institutional Inflows
(last 12 months)
$18.41M
Number of
Institutional Sellers
(last 12 months)
17
Total
Institutional Outflows
(last 12 months)
$21.59M
Get BATRA Insider Trade Alerts

Want to know when executives and insiders are buying or selling Atlanta Braves stock? Sign up for InsiderTrades.com's daily newsletter to get the latest insider transactions delivered to your inbox daily.

Skip Chart & View Institutional Buying and Selling Data

BATRA Institutional Buying and Selling by Quarter

Atlanta Braves Major Shareholders & Ownership History

Reporting DateMajor Shareholder NameShares HeldMarket Value% of PortfolioQuarterly Change in SharesOwnership in CompanyDetails
5/16/2024 California State Teachers Retirement System7,060$296K0.0%-7.5%0.011%
5/15/2024 Gamco Investors INC. ET AL2,360,311$98.90M1.0%-0.6%3.815%
5/10/2024 Vanguard Group Inc.608,500$25.50M0.0%+2.3%0.983%
5/7/2024 Obermeyer Wood Investment Counsel Lllp6,000$251K0.0%N/A0.010%
5/3/2024 Schwarz Dygos Wheeler Investment Advisors LLC6,875$288K0.1%-4.2%0.011%
5/3/2024 Central Pacific Bank Trust Division16,600$692K0.1%N/A0.027%
5/2/2024 Quent Capital LLC666$28K0.0%+1,607.7%0.001%
4/30/2024 BlueChip Wealth Advisors LLC7,060$296K0.2%N/A0.011%
4/26/2024 Pinnacle Associates Ltd.38,405$1.61M0.0%-8.1%0.062%
4/23/2024 Sapient Capital LLC11,756$493K0.0%+2.6%0.019%
4/5/2024 Chickasaw Capital Management LLC64,888$2.72M0.1%+2.9%0.105%
3/6/2024 SageView Advisory Group LLC6,002$265K0.0%N/A0.010%
2/20/2024Aurora Investment Counsel40,125$1.72M1.0%-0.8%0.065%
2/15/2024 Gamco Investors INC. ET AL2,373,415$101.54M1.1%-1.3%3.845%
2/14/2024 Mark Asset Management LP10,000$428K0.1%-30.6%0.016%
2/13/2024 Gabelli Funds LLC831,200$35.56M0.3%+0.5%1.347%
2/9/2024 SageView Advisory Group LLC6,002$265K0.0%N/A0.010%
2/7/2024 Johnson Investment Counsel Inc.8,002$342K0.0%N/A0.013%
2/6/2024 Sapient Capital LLC11,455$490K0.0%N/A0.019%
2/6/2024 Swiss National Bank13,222$566K0.0%-9.6%0.021%
2/6/2024 Wilbanks Smith & Thomas Asset Management LLC5,033$215K0.0%N/A0.008%
2/1/2024 New York State Common Retirement Fund4,536$194K0.0%+16.0%0.007%
1/30/2024 Oak Family Advisors LLC13,655$584K0.2%-6.1%0.022%
1/30/2024 Cullen Investment Group LTD.5,300$227K0.0%N/A0.009%
1/29/2024 MRP Capital Investments LLC28,545$1.21M1.3%-1.5%0.046%
1/29/2024 Sapient Capital LLC13,604$582K0.0%N/A0.022%
1/19/2024 Pinnacle Associates Ltd.41,771$1.79M0.0%-3.7%0.068%
1/12/2024 Chickasaw Capital Management LLC63,063$2.70M0.1%-5.5%0.102%
1/2/2024 Anchor Investment Management LLC8,289$355K0.0%N/A0.013%
12/18/2023 Vanguard Group Inc.898,074$35.09M0.0%+0.2%1.455%
11/22/2023Aurora Investment Counsel40,448$1.58M1.0%+1.0%0.066%
11/14/2023 Shapiro Capital Management LLC75,500$2.95M0.1%-69.9%0.122%
11/14/2023 Qube Research & Technologies Ltd51,799$2.02M0.0%+1.9%0.084%
11/14/2023 Roundview Capital LLC187,969$7.34M0.7%N/A0.305%
11/8/2023 Gabelli Funds LLC827,200$32.32M0.3%-2.1%1.340%
11/8/2023 Gamco Investors INC. ET AL2,403,723$93.91M1.1%-6.4%3.895%
11/8/2023 Thompson Siegel & Walmsley LLC8,439$330K0.0%+9.1%0.014%
11/7/2023 Quantbot Technologies LP692$27K0.0%N/A0.001%
11/2/2023 MRP Capital Investments LLC28,975$1.09M0.7%+2.4%0.047%
10/30/2023Cedar Wealth Management LLC2,100$82K0.0%N/A0.003%
This military-backed stock “owns” AI market (Ad)

The AI boom is just getting started. And the real wealth has still to be made…

You must read this new presentation from Porter Stansberry.
10/24/2023 Bank of New York Mellon Corp33,809$1.32M0.0%-3.8%0.055%
10/24/2023 FinTrust Capital Advisors LLC825$32K0.0%N/A0.001%
10/24/2023 Pinnacle Associates Ltd.43,371$1.70M0.0%N/A0.070%
10/20/2023 Oak Family Advisors LLC14,538$568K0.3%-9.7%0.024%
10/17/2023 DAVENPORT & Co LLC14,100$551K0.0%-59.1%0.023%
10/12/2023 Mendota Financial Group LLC3,138$123K0.1%-43.5%0.005%
8/14/2023Aurora Investment Counsel40,050$1.64M1.1%-31.9%0.388%
8/14/2023 Horizon Kinetics Asset Management LLC30,049$1.23M0.0%-1.4%0.291%
8/14/2023 Shapiro Capital Management LLC250,514$10.25M0.3%-2.0%2.427%
8/10/2023 Gamco Investors INC. ET AL2,579,013$105.53M1.1%+2.1%24.990%
8/10/2023 Gabelli Funds LLC844,607$34.56M0.3%+6.3%8.184%
8/2/2023 Oak Family Advisors LLC16,098$659K0.3%-3.0%0.156%
7/10/2023 SG Americas Securities LLC55,350$2.27M0.0%-8.5%0.104%
7/5/2023 M&R Capital Management Inc.653$27K0.0%+1,132.1%0.001%
6/6/2023Aurora Investment Counsel58,794$2.03M1.3%-18.7%0.111%
6/5/2023Aurora Investment Counsel2,033$2.03B1.3%-97.2%0.004%
5/12/2023 Gamco Investors INC. ET AL2,526,843$87.38M0.9%+1.3%4.763%
5/12/2023 MRP Capital Investments LLC29,050$1.01M1.1%-20.6%0.055%
5/11/2023 Shapiro Capital Management LLC255,514$8.84M0.2%-2.7%0.482%
5/11/2023 Thompson Siegel & Walmsley LLC7,639$264K0.0%+24.6%0.014%
4/28/2023 SG Americas Securities LLC60,459$2.09M0.0%-18.8%0.114%
4/27/2023 DAVENPORT & Co LLC34,550$1.20M0.0%+110.0%0.065%
4/27/2023 Simplex Trading LLC784$27K0.0%+282.4%0.001%
3/1/2023 Regal Investment Advisors LLC14,721$481K0.0%+24.1%0.028%
2/14/2023 Mark Asset Management LP24,530$801K0.2%-1.9%0.046%
2/13/2023 Roundview Capital LLC187,674$6.13M0.7%+0.4%0.355%
2/13/2023 GABELLI & Co INVESTMENT ADVISERS INC.16,500$539K0.1%+26.8%0.031%
2/13/2023 Gabelli Funds LLC778,077$25.42M0.2%+1.4%1.472%
2/13/2023 Gamco Investors INC. ET AL2,452,501$80.12M0.9%-4.4%4.640%
2/10/2023 Thompson Siegel & Walmsley LLC6,132$200K0.0%+9.5%0.012%
2/10/2023 Snider Financial Group45,340$1.48M0.8%-25.8%0.086%
2/9/2023 Horizon Kinetics Asset Management LLC30,579$999K0.0%-1.9%0.058%
2/8/2023 Belpointe Asset Management LLC900$29K0.0%N/A0.002%
2/7/2023 Horizon Kinetics Asset Management LLC30,579$999K0.0%-1.9%0.058%
2/3/2023Aurora Investment Counsel72,340$2.36M1.6%-0.9%0.137%
2/3/2023 Mendota Financial Group LLC5,556$182K0.2%N/A0.011%
2/2/2023 SG Americas Securities LLC74,494$2.43M0.0%+12.7%0.141%
2/1/2023 Zurcher Kantonalbank Zurich Cantonalbank3,401$111K0.0%+45.3%0.006%
2/1/2023 Pinnacle Associates Ltd.45,106$1.47M0.0%-1.7%0.085%
1/31/2023 AE Wealth Management LLC24,961$815K0.0%+3.1%0.047%
1/27/2023 Oak Family Advisors LLC16,798$549K0.3%-19.0%0.032%
1/20/2023 DAVENPORT & Co LLC16,450$537K0.0%-44.6%0.031%
12/15/2022 Thompson Siegel & Walmsley LLC5,601$158K0.0%+9.5%0.011%
11/16/2022 Horizon Kinetics Asset Management LLC31,176$878K0.0%-1.0%0.059%
11/15/2022 Mark Asset Management LP25,000$704K0.2%N/A0.047%
11/14/2022 Renaissance Technologies LLC228,800$6.44M0.0%-16.7%0.433%
11/14/2022 Canada Pension Plan Investment Board9,410$265K0.0%N/A0.018%
11/10/2022 Gabelli Funds LLC767,577$21.61M0.2%+4.6%1.452%
11/10/2022 Gamco Investors INC. ET AL2,564,466$72.19M0.8%+3.3%4.851%
11/9/2022 Bessemer Group Inc.1,513$43K0.0%+11,538.5%0.003%
Write this ticker symbol down… (Ad)

A megatrend now poised to mint a brand-new wave of millionaires right here in America. And today, self-made millionaire Tim Bohen is giving you an inside look at the megatrend that’s going to change everything.

Discover the #1 company leading this revolution
11/4/2022 Schwarz Dygos Wheeler Investment Advisors LLC7,475$210K0.1%N/A0.014%
11/3/2022 The Manufacturers Life Insurance Company7,634$215K0.0%N/A0.014%
11/1/2022 Great West Life Assurance Co. Can6,016$169K0.0%+937.2%0.011%
10/31/2022 SG Americas Securities LLC66,073$1.86M0.0%-26.2%0.125%
10/25/2022 Thompson Siegel & Walmsley LLC5,601$158K0.0%+9.5%0.011%
10/25/2022 AE Wealth Management LLC24,215$682K0.0%N/A0.046%
10/17/2022Bartlett & Co. LLC1,225$34K0.0%N/A0.002%
8/13/2022 Gamco Investors INC. ET AL2,482,563$62.44M0.7%+11.1%24.070%
8/11/2022 Deutsche Bank AG195,253$4.91M0.0%+20.6%1.894%
8/11/2022 Roundview Capital LLC183,909$4.63M0.6%+1.2%1.784%
(Data available from 1/1/2016 forward)

BATRA Institutional Ownership - Frequently Asked Questions

Who are the largest shareholders of BATRA shares?

During the previous two years, 53 institutional investors and hedge funds held shares of Atlanta Braves. The most heavily invested institutionals were Gamco Investors INC. ET AL ($98.90M), Gabelli Funds LLC ($35.56M), Vanguard Group Inc. ($25.50M), Roundview Capital LLC ($7.34M), Renaissance Technologies LLC ($6.44M), Deutsche Bank AG ($4.91M), and Shapiro Capital Management LLC ($2.95M).Learn more on BATRA's institutional investors.

What percentage of Atlanta Braves stock is owned by institutional investors?

12.31% of Atlanta Braves stock is owned by institutional investors. Learn more on BATRA's institutional investor holdings.

Which institutional investors have been buying Atlanta Braves stock?

Of the 44 institutional investors that purchased Atlanta Braves stock in the last 24 months, the following investors and hedge funds have bought the highest volume of shares: Gamco Investors INC. ET AL ($414.68K), Roundview Capital LLC ($190.86K), Gabelli Funds LLC ($98.13K), Pinnacle Associates Ltd. ($43.37K), SG Americas Securities LLC ($40.21K), Deutsche Bank AG ($33.35K), and Sapient Capital LLC ($25.36K).

How much institutional buying is happening at Atlanta Braves?

Institutional investors have bought a total of 1,064,832 shares in the last 24 months. This purchase volume represents approximately $35.07M in transactions.

Which Atlanta Braves major shareholders have been selling company stock?

Of the 20 institutional investors that sold Atlanta Braves stock in the last 24 months, the following investors and hedge funds have sold the highest volume of shares: Gamco Investors INC. ET AL ($318.67K), Shapiro Capital Management LLC ($187.11K), Aurora Investment Counsel ($105.56K), Renaissance Technologies LLC ($45.89K), SG Americas Securities LLC ($42.63K), DAVENPORT & Co LLC ($33.63K), and Gabelli Funds LLC ($17.41K).

How much institutional selling is happening at Atlanta Braves?

Institutional investors have sold a total of 807,163 shares in the last 24 months. This volume of shares sold represents approximately $29.52M in transactions.


This page (NASDAQ:BATRA) was last updated on 5/22/2024 by MarketBeat.com Staff

From Our Partners